createdAt,value
2019-02-19T00:08:09.395Z,49.85
2019-02-19T00:18:15.305Z,49.55
2019-02-19T00:28:21.099Z,49.30
2019-02-19T00:38:27.023Z,52.60
2019-02-19T00:48:32.934Z,50.00
2019-02-19T00:58:38.758Z,50.55
2019-02-19T01:08:44.612Z,49.48
2019-02-19T01:18:50.469Z,52.55
2019-02-19T01:28:58.386Z,45.63
2019-02-19T01:39:04.874Z,43.87
2019-02-19T01:49:10.900Z,46.30
2019-02-19T01:59:16.702Z,47.23
2019-02-19T02:09:22.484Z,47.53
2019-02-19T02:19:28.322Z,42.73
2019-02-19T02:39:39.056Z,43.20
2019-02-19T02:49:44.876Z,44.27
2019-02-19T02:59:50.577Z,45.83
2019-02-19T03:09:56.461Z,48.78
2019-02-19T03:30:10.697Z,45.92
2019-02-19T03:40:16.775Z,39.53
2019-02-19T03:50:22.534Z,39.75
2019-02-19T04:00:28.860Z,37.50
2019-02-19T04:10:34.730Z,37.95
2019-02-19T04:20:40.611Z,35.95
2019-02-19T04:30:46.466Z,36.80
2019-02-19T04:40:52.390Z,37.10
2019-02-19T04:50:58.192Z,35.70
2019-02-19T05:01:04.119Z,33.00
2019-02-19T05:11:09.948Z,34.63
2019-02-19T05:21:15.814Z,34.23
2019-02-19T05:41:26.581Z,39.10
2019-02-19T05:51:32.367Z,40.98
2019-02-19T06:01:38.132Z,38.50
2019-02-19T06:11:43.991Z,35.40
2019-02-19T06:31:54.578Z,32.58
2019-02-19T06:42:00.723Z,52.05
2019-02-19T06:52:06.577Z,46.95
2019-02-19T07:02:16.796Z,97.15
2019-02-19T07:12:23.025Z,95.45
2019-02-19T07:22:28.861Z,89.15
2019-02-19T07:32:34.719Z,78.72
2019-02-19T07:42:40.589Z,71.25
2019-02-19T07:52:46.419Z,67.82
2019-02-19T08:02:52.308Z,72.30
2019-02-19T08:23:03.339Z,46.42
2019-02-19T08:43:14.096Z,61.33
2019-02-19T08:53:20.125Z,49.08
2019-02-19T09:03:25.872Z,54.10
2019-02-19T09:13:31.765Z,41.83
2019-02-19T09:23:37.577Z,56.90
2019-02-19T09:43:48.166Z,32.80
2019-02-19T09:53:54.001Z,33.33
2019-02-19T10:03:59.869Z,38.17
2019-02-19T10:14:05.741Z,32.33
2019-02-19T10:24:11.652Z,24.65
2019-02-19T10:34:17.566Z,36.17
2019-02-19T10:44:23.475Z,34.88
2019-02-19T10:54:29.335Z,33.70
2019-02-19T11:04:35.256Z,31.40
2019-02-19T11:14:41.030Z,33.98
2019-02-19T11:24:46.894Z,35.52
2019-02-19T11:34:52.798Z,31.20
2019-02-19T11:44:58.687Z,28.75
2019-02-19T11:55:05.256Z,26.50
2019-02-19T12:05:11.184Z,25.85
2019-02-19T12:15:17.063Z,29.07
2019-02-19T12:25:23.032Z,26.25
2019-02-19T12:35:29.024Z,33.23
2019-02-19T12:45:35.886Z,28.23
2019-02-19T12:55:43.635Z,24.67
2019-02-19T13:05:49.288Z,23.73
2019-02-19T13:15:55.193Z,23.40
2019-02-19T13:26:01.041Z,22.07
2019-02-19T13:36:09.059Z,30.23
2019-02-19T13:46:14.941Z,21.57
2019-02-19T13:56:20.722Z,27.62
2019-02-19T14:06:26.499Z,22.37
2019-02-19T14:26:49.812Z,30.97
2019-02-19T14:37:13.292Z,20.50
2019-02-19T14:47:20.777Z,19.10
2019-02-19T14:57:30.681Z,21.75
2019-02-19T15:07:44.261Z,23.05
2019-02-19T15:18:07.751Z,21.37
2019-02-19T15:28:18.078Z,22.25
2019-02-19T15:38:25.623Z,21.60
2019-02-19T15:48:49.378Z,29.87
2019-02-19T15:59:01.010Z,18.60
2019-02-19T16:09:09.257Z,24.98
2019-02-19T16:19:35.001Z,25.25
2019-02-19T16:39:52.661Z,24.60
2019-02-19T16:50:16.483Z,28.55
2019-02-19T17:00:27.036Z,25.57
2019-02-19T17:10:43.714Z,24.17
2019-02-19T17:20:51.167Z,24.77
2019-02-19T17:41:14.430Z,31.75
2019-02-19T17:51:34.021Z,24.57
2019-02-19T18:01:45.493Z,29.52
2019-02-19T18:11:58.784Z,32.48
2019-02-19T18:22:04.621Z,29.12
2019-02-19T18:32:10.466Z,32.08
2019-02-19T18:42:16.677Z,30.80
2019-02-19T18:52:22.569Z,37.33
2019-02-19T19:12:33.649Z,53.38
2019-02-19T19:39:01.702Z,53.38
2019-02-19T19:49:09.210Z,38.42
2019-02-19T19:59:15.208Z,34.00
2019-02-19T20:09:22.380Z,34.43
2019-02-19T20:19:28.351Z,25.10
2019-02-19T20:29:34.411Z,29.25
2019-02-19T20:39:40.399Z,28.32
2019-02-19T20:49:47.373Z,29.42
2019-02-19T20:59:53.398Z,32.13
2019-02-19T21:09:59.417Z,22.27
2019-02-19T21:20:08.708Z,23.60
2019-02-19T21:30:18.952Z,21.35
2019-02-19T21:40:24.864Z,16.27
2019-02-19T21:50:30.866Z,18.48
2019-02-19T22:00:36.752Z,13.93
2019-02-19T22:10:42.570Z,14.40
2019-02-19T22:20:50.463Z,14.80
2019-02-19T22:41:01.271Z,12.78
2019-02-19T22:51:07.526Z,12.35
2019-02-19T23:01:29.104Z,11.48
2019-02-19T23:11:35.009Z,10.88
2019-02-19T23:21:40.919Z,11.78
2019-02-19T23:31:46.812Z,10.93
2019-02-19T23:41:52.779Z,9.40
2019-02-19T23:51:58.724Z,10.60
